sensor_id;sensor_type;location;lat;lon;timestamp;temperature;humidity
51922;DHT22;37948;53.260;6.394;2022-11-20T00:00:39;0.40;99.90
51922;DHT22;37948;53.260;6.394;2022-11-20T00:03:05;0.40;99.90
51922;DHT22;37948;53.260;6.394;2022-11-20T00:05:32;0.40;99.90
51922;DHT22;37948;53.260;6.394;2022-11-20T00:07:58;0.40;99.90
51922;DHT22;37948;53.260;6.394;2022-11-20T00:10:23;0.40;99.90
51922;DHT22;37948;53.260;6.394;2022-11-20T00:12:49;0.40;99.90
51922;DHT22;37948;53.260;6.394;2022-11-20T00:15:15;0.40;99.90
51922;DHT22;37948;53.260;6.394;2022-11-20T00:17:40;0.40;99.90
51922;DHT22;37948;53.260;6.394;2022-11-20T00:20:06;0.40;99.90
51922;DHT22;37948;53.260;6.394;2022-11-20T00:22:32;0.40;99.90
51922;DHT22;37948;53.260;6.394;2022-11-20T00:24:57;0.30;99.90
51922;DHT22;37948;53.260;6.394;2022-11-20T00:27:23;0.30;99.90
51922;DHT22;37948;53.260;6.394;2022-11-20T00:29:49;0.30;99.90
51922;DHT22;37948;53.260;6.394;2022-11-20T00:32:14;0.30;99.90
51922;DHT22;37948;53.260;6.394;2022-11-20T00:34:40;0.30;99.90
51922;DHT22;37948;53.260;6.394;2022-11-20T00:37:05;0.30;99.90
51922;DHT22;37948;53.260;6.394;2022-11-20T00:39:31;0.30;99.90
51922;DHT22;37948;53.260;6.394;2022-11-20T00:41:57;0.40;99.90
51922;DHT22;37948;53.260;6.394;2022-11-20T00:44:22;0.40;99.90
51922;DHT22;37948;53.260;6.394;2022-11-20T00:46:48;0.40;99.90
51922;DHT22;37948;53.260;6.394;2022-11-20T00:49:13;0.40;99.90
51922;DHT22;37948;53.260;6.394;2022-11-20T00:51:39;0.40;99.90
51922;DHT22;37948;53.260;6.394;2022-11-20T00:54:04;0.40;99.90
51922;DHT22;37948;53.260;6.394;2022-11-20T00:56:30;0.50;99.90
51922;DHT22;37948;53.260;6.394;2022-11-20T00:58:59;0.40;99.90
51922;DHT22;37948;53.260;6.394;2022-11-20T01:01:26;0.40;99.90
51922;DHT22;37948;53.260;6.394;2022-11-20T01:03:57;0.40;99.90
51922;DHT22;37948;53.260;6.394;2022-11-20T01:06:29;0.50;99.90
51922;DHT22;37948;53.260;6.394;2022-11-20T01:08:57;0.40;99.90
51922;DHT22;37948;53.260;6.394;2022-11-20T01:11:28;0.40;99.90
51922;DHT22;37948;53.260;6.394;2022-11-20T01:13:55;0.40;99.90
51922;DHT22;37948;53.260;6.394;2022-11-20T01:16:31;0.40;99.90
51922;DHT22;37948;53.260;6.394;2022-11-20T01:18:59;0.50;99.90
51922;DHT22;37948;53.260;6.394;2022-11-20T01:21:35;0.50;99.90
51922;DHT22;37948;53.260;6.394;2022-11-20T01:24:02;0.50;99.90
51922;DHT22;37948;53.260;6.394;2022-11-20T01:26:30;0.50;99.90
51922;DHT22;37948;53.260;6.394;2022-11-20T01:28:57;0.50;99.90
51922;DHT22;37948;53.260;6.394;2022-11-20T01:31:25;0.50;99.90
51922;DHT22;37948;53.260;6.394;2022-11-20T01:33:54;0.50;99.90
51922;DHT22;37948;53.260;6.394;2022-11-20T01:36:21;0.50;99.90
51922;DHT22;37948;53.260;6.394;2022-11-20T01:38:47;0.50;99.90
51922;DHT22;37948;53.260;6.394;2022-11-20T01:41:14;0.50;99.90
51922;DHT22;37948;53.260;6.394;2022-11-20T01:44:00;0.60;99.90
51922;DHT22;37948;53.260;6.394;2022-11-20T01:46:26;0.60;99.90
51922;DHT22;37948;53.260;6.394;2022-11-20T01:49:01;0.60;99.90
51922;DHT22;37948;53.260;6.394;2022-11-20T01:54:17;0.60;99.90
51922;DHT22;37948;53.260;6.394;2022-11-20T01:56:45;0.60;99.90
51922;DHT22;37948;53.260;6.394;2022-11-20T01:59:14;0.60;99.90
51922;DHT22;37948;53.260;6.394;2022-11-20T02:01:40;0.60;99.90
51922;DHT22;37948;53.260;6.394;2022-11-20T02:04:07;0.60;99.90
51922;DHT22;37948;53.260;6.394;2022-11-20T02:06:38;0.60;99.90
51922;DHT22;37948;53.260;6.394;2022-11-20T02:09:05;0.70;99.90
51922;DHT22;37948;53.260;6.394;2022-11-20T02:11:31;0.70;99.90
51922;DHT22;37948;53.260;6.394;2022-11-20T02:13:57;0.70;99.90
51922;DHT22;37948;53.260;6.394;2022-11-20T02:16:25;0.70;99.90
51922;DHT22;37948;53.260;6.394;2022-11-20T02:18:53;0.70;99.90
51922;DHT22;37948;53.260;6.394;2022-11-20T02:21:44;0.70;99.90
51922;DHT22;37948;53.260;6.394;2022-11-20T02:24:15;0.70;99.90
51922;DHT22;37948;53.260;6.394;2022-11-20T02:29:51;0.60;99.90
51922;DHT22;37948;53.260;6.394;2022-11-20T02:32:24;0.60;99.90
51922;DHT22;37948;53.260;6.394;2022-11-20T02:34:50;0.60;99.90
51922;DHT22;37948;53.260;6.394;2022-11-20T02:37:16;0.60;99.90
51922;DHT22;37948;53.260;6.394;2022-11-20T02:39:45;0.60;99.90
51922;DHT22;37948;53.260;6.394;2022-11-20T02:42:11;0.60;99.90
51922;DHT22;37948;53.260;6.394;2022-11-20T02:44:37;0.70;99.90
51922;DHT22;37948;53.260;6.394;2022-11-20T02:47:03;0.60;99.90
51922;DHT22;37948;53.260;6.394;2022-11-20T02:49:28;0.60;99.90
51922;DHT22;37948;53.260;6.394;2022-11-20T02:51:54;0.60;99.90
51922;DHT22;37948;53.260;6.394;2022-11-20T02:54:19;0.60;99.90
51922;DHT22;37948;53.260;6.394;2022-11-20T02:56:45;0.60;99.90
51922;DHT22;37948;53.260;6.394;2022-11-20T02:59:10;0.60;99.90
51922;DHT22;37948;53.260;6.394;2022-11-20T03:01:36;0.70;99.90
51922;DHT22;37948;53.260;6.394;2022-11-20T03:04:02;0.60;99.90
51922;DHT22;37948;53.260;6.394;2022-11-20T03:06:28;0.60;99.90
51922;DHT22;37948;53.260;6.394;2022-11-20T03:08:53;0.60;99.90
51922;DHT22;37948;53.260;6.394;2022-11-20T03:11:20;0.60;99.90
51922;DHT22;37948;53.260;6.394;2022-11-20T03:13:45;0.60;99.90
51922;DHT22;37948;53.260;6.394;2022-11-20T03:16:14;0.60;99.90
51922;DHT22;37948;53.260;6.394;2022-11-20T03:18:41;0.60;99.90
51922;DHT22;37948;53.260;6.394;2022-11-20T03:21:07;0.60;99.90
51922;DHT22;37948;53.260;6.394;2022-11-20T03:23:34;0.60;99.90
51922;DHT22;37948;53.260;6.394;2022-11-20T03:26:15;0.60;99.90
51922;DHT22;37948;53.260;6.394;2022-11-20T03:28:46;0.60;99.90
51922;DHT22;37948;53.260;6.394;2022-11-20T03:31:13;0.60;99.90
51922;DHT22;37948;53.260;6.394;2022-11-20T03:33:41;0.60;99.90
51922;DHT22;37948;53.260;6.394;2022-11-20T03:36:10;0.60;99.90
51922;DHT22;37948;53.260;6.394;2022-11-20T03:38:36;0.70;99.90
51922;DHT22;37948;53.260;6.394;2022-11-20T03:41:04;0.70;99.90
51922;DHT22;37948;53.260;6.394;2022-11-20T03:43:31;0.70;99.90
51922;DHT22;37948;53.260;6.394;2022-11-20T03:45:57;0.70;99.90
51922;DHT22;37948;53.260;6.394;2022-11-20T03:48:23;0.70;99.90
51922;DHT22;37948;53.260;6.394;2022-11-20T03:50:49;0.70;99.90
51922;DHT22;37948;53.260;6.394;2022-11-20T03:53:15;0.70;99.90
51922;DHT22;37948;53.260;6.394;2022-11-20T03:55:41;0.70;99.90
51922;DHT22;37948;53.260;6.394;2022-11-20T03:58:07;0.70;99.90
51922;DHT22;37948;53.260;6.394;2022-11-20T04:00:32;0.70;99.90
51922;DHT22;37948;53.260;6.394;2022-11-20T04:02:59;0.70;99.90
51922;DHT22;37948;53.260;6.394;2022-11-20T04:05:25;0.70;99.90
51922;DHT22;37948;53.260;6.394;2022-11-20T04:07:50;0.70;99.90
51922;DHT22;37948;53.260;6.394;2022-11-20T04:10:16;0.70;99.90
51922;DHT22;37948;53.260;6.394;2022-11-20T04:12:41;0.70;99.90
51922;DHT22;37948;53.260;6.394;2022-11-20T04:15:07;0.70;99.90
51922;DHT22;37948;53.260;6.394;2022-11-20T04:17:33;0.80;99.90
51922;DHT22;37948;53.260;6.394;2022-11-20T04:19:58;0.80;99.90
51922;DHT22;37948;53.260;6.394;2022-11-20T04:22:24;0.80;99.90
51922;DHT22;37948;53.260;6.394;2022-11-20T04:24:50;0.80;99.90
51922;DHT22;37948;53.260;6.394;2022-11-20T04:27:15;0.70;99.90
51922;DHT22;37948;53.260;6.394;2022-11-20T04:29:41;0.70;99.90
51922;DHT22;37948;53.260;6.394;2022-11-20T04:32:06;0.70;99.90
51922;DHT22;37948;53.260;6.394;2022-11-20T04:34:32;0.70;99.90
51922;DHT22;37948;53.260;6.394;2022-11-20T04:36:57;0.70;99.90
51922;DHT22;37948;53.260;6.394;2022-11-20T04:39:23;0.70;99.90
51922;DHT22;37948;53.260;6.394;2022-11-20T04:41:48;0.70;99.90
51922;DHT22;37948;53.260;6.394;2022-11-20T04:44:34;0.70;99.90
51922;DHT22;37948;53.260;6.394;2022-11-20T04:46:59;0.70;99.90
51922;DHT22;37948;53.260;6.394;2022-11-20T04:49:25;0.70;99.90
51922;DHT22;37948;53.260;6.394;2022-11-20T04:51:53;0.70;99.90
51922;DHT22;37948;53.260;6.394;2022-11-20T04:54:19;0.80;99.90
51922;DHT22;37948;53.260;6.394;2022-11-20T04:56:47;0.80;99.90
51922;DHT22;37948;53.260;6.394;2022-11-20T04:59:13;0.80;99.90
51922;DHT22;37948;53.260;6.394;2022-11-20T05:01:39;0.80;99.90
51922;DHT22;37948;53.260;6.394;2022-11-20T05:04:04;0.90;99.90
51922;DHT22;37948;53.260;6.394;2022-11-20T05:06:31;0.90;99.90
51922;DHT22;37948;53.260;6.394;2022-11-20T05:08:56;0.90;99.90
51922;DHT22;37948;53.260;6.394;2022-11-20T05:11:22;0.90;99.90
51922;DHT22;37948;53.260;6.394;2022-11-20T05:13:49;0.90;99.90
51922;DHT22;37948;53.260;6.394;2022-11-20T05:16:17;0.90;99.90
51922;DHT22;37948;53.260;6.394;2022-11-20T05:18:43;0.90;99.90
51922;DHT22;37948;53.260;6.394;2022-11-20T05:21:10;0.90;99.90
51922;DHT22;37948;53.260;6.394;2022-11-20T05:23:36;1.00;99.90
51922;DHT22;37948;53.260;6.394;2022-11-20T05:26:01;0.90;99.90
51922;DHT22;37948;53.260;6.394;2022-11-20T05:28:28;0.90;99.90
51922;DHT22;37948;53.260;6.394;2022-11-20T05:30:54;1.00;99.90
51922;DHT22;37948;53.260;6.394;2022-11-20T05:33:20;1.00;99.90
51922;DHT22;37948;53.260;6.394;2022-11-20T05:35:46;0.90;99.90
51922;DHT22;37948;53.260;6.394;2022-11-20T05:38:12;1.00;99.90
51922;DHT22;37948;53.260;6.394;2022-11-20T05:40:37;0.90;99.90
51922;DHT22;37948;53.260;6.394;2022-11-20T05:43:03;0.90;99.90
51922;DHT22;37948;53.260;6.394;2022-11-20T05:45:28;0.90;99.90
51922;DHT22;37948;53.260;6.394;2022-11-20T05:48:00;0.90;99.90
51922;DHT22;37948;53.260;6.394;2022-11-20T05:50:27;0.90;99.90
51922;DHT22;37948;53.260;6.394;2022-11-20T05:52:52;0.90;99.90
51922;DHT22;37948;53.260;6.394;2022-11-20T05:55:18;0.90;99.90
51922;DHT22;37948;53.260;6.394;2022-11-20T05:57:43;0.90;99.90
51922;DHT22;37948;53.260;6.394;2022-11-20T06:00:10;0.90;99.90
51922;DHT22;37948;53.260;6.394;2022-11-20T06:02:35;0.90;99.90
51922;DHT22;37948;53.260;6.394;2022-11-20T06:05:01;0.90;99.90
51922;DHT22;37948;53.260;6.394;2022-11-20T06:07:27;0.90;99.90
51922;DHT22;37948;53.260;6.394;2022-11-20T06:09:52;0.80;99.90
51922;DHT22;37948;53.260;6.394;2022-11-20T06:12:18;0.80;99.90
51922;DHT22;37948;53.260;6.394;2022-11-20T06:14:43;0.80;99.90
51922;DHT22;37948;53.260;6.394;2022-11-20T06:17:09;0.80;99.90
51922;DHT22;37948;53.260;6.394;2022-11-20T06:19:34;0.80;99.90
51922;DHT22;37948;53.260;6.394;2022-11-20T06:22:00;0.80;99.90
51922;DHT22;37948;53.260;6.394;2022-11-20T06:24:25;0.90;99.90
51922;DHT22;37948;53.260;6.394;2022-11-20T06:26:51;0.80;99.90
51922;DHT22;37948;53.260;6.394;2022-11-20T06:29:17;0.90;99.90
51922;DHT22;37948;53.260;6.394;2022-11-20T06:31:42;0.90;99.90
51922;DHT22;37948;53.260;6.394;2022-11-20T06:34:08;0.90;99.90
51922;DHT22;37948;53.260;6.394;2022-11-20T06:36:34;0.90;99.90
51922;DHT22;37948;53.260;6.394;2022-11-20T06:39:00;0.90;99.90
51922;DHT22;37948;53.260;6.394;2022-11-20T06:41:25;0.90;99.90
51922;DHT22;37948;53.260;6.394;2022-11-20T06:43:51;1.00;99.90
51922;DHT22;37948;53.260;6.394;2022-11-20T06:46:18;1.00;99.90
51922;DHT22;37948;53.260;6.394;2022-11-20T06:48:44;1.00;99.90
51922;DHT22;37948;53.260;6.394;2022-11-20T06:51:10;1.00;99.90
51922;DHT22;37948;53.260;6.394;2022-11-20T06:53:36;1.00;99.90
51922;DHT22;37948;53.260;6.394;2022-11-20T06:56:02;1.00;99.90
51922;DHT22;37948;53.260;6.394;2022-11-20T06:58:30;1.00;99.90
51922;DHT22;37948;53.260;6.394;2022-11-20T07:01:10;1.00;99.90
51922;DHT22;37948;53.260;6.394;2022-11-20T07:03:37;1.00;99.90
51922;DHT22;37948;53.260;6.394;2022-11-20T07:06:03;1.00;99.90
51922;DHT22;37948;53.260;6.394;2022-11-20T07:08:29;1.00;99.90
51922;DHT22;37948;53.260;6.394;2022-11-20T07:10:59;1.00;99.90
51922;DHT22;37948;53.260;6.394;2022-11-20T07:13:26;1.00;99.90
51922;DHT22;37948;53.260;6.394;2022-11-20T07:15:52;1.00;99.90
51922;DHT22;37948;53.260;6.394;2022-11-20T07:18:17;1.00;99.90
51922;DHT22;37948;53.260;6.394;2022-11-20T07:20:43;1.00;99.90
51922;DHT22;37948;53.260;6.394;2022-11-20T07:23:08;1.10;99.90
51922;DHT22;37948;53.260;6.394;2022-11-20T07:25:34;1.00;99.90
51922;DHT22;37948;53.260;6.394;2022-11-20T07:28:00;1.00;99.90
51922;DHT22;37948;53.260;6.394;2022-11-20T07:30:29;1.00;99.90
51922;DHT22;37948;53.260;6.394;2022-11-20T07:32:56;1.10;99.90
51922;DHT22;37948;53.260;6.394;2022-11-20T07:35:22;1.10;99.90
51922;DHT22;37948;53.260;6.394;2022-11-20T07:37:48;1.00;99.90
51922;DHT22;37948;53.260;6.394;2022-11-20T07:40:15;1.10;99.90
51922;DHT22;37948;53.260;6.394;2022-11-20T07:42:48;1.10;99.90
51922;DHT22;37948;53.260;6.394;2022-11-20T07:45:14;1.10;99.90
51922;DHT22;37948;53.260;6.394;2022-11-20T07:47:39;1.10;99.90
51922;DHT22;37948;53.260;6.394;2022-11-20T07:50:05;1.10;99.90
51922;DHT22;37948;53.260;6.394;2022-11-20T07:52:31;1.10;99.90
51922;DHT22;37948;53.260;6.394;2022-11-20T07:54:56;1.10;99.90
51922;DHT22;37948;53.260;6.394;2022-11-20T07:57:22;1.10;99.90
51922;DHT22;37948;53.260;6.394;2022-11-20T07:59:47;1.10;99.90
51922;DHT22;37948;53.260;6.394;2022-11-20T08:02:13;1.10;99.90
51922;DHT22;37948;53.260;6.394;2022-11-20T08:04:38;1.10;99.90
51922;DHT22;37948;53.260;6.394;2022-11-20T08:07:04;1.20;99.90
51922;DHT22;37948;53.260;6.394;2022-11-20T08:09:29;1.20;99.90
51922;DHT22;37948;53.260;6.394;2022-11-20T08:11:55;1.20;99.90
51922;DHT22;37948;53.260;6.394;2022-11-20T08:14:39;1.30;99.90
51922;DHT22;37948;53.260;6.394;2022-11-20T08:17:05;1.30;99.90
51922;DHT22;37948;53.260;6.394;2022-11-20T08:19:30;1.30;99.90
51922;DHT22;37948;53.260;6.394;2022-11-20T08:21:56;1.30;99.90
51922;DHT22;37948;53.260;6.394;2022-11-20T08:24:21;1.30;99.90
51922;DHT22;37948;53.260;6.394;2022-11-20T08:26:47;1.30;99.90
51922;DHT22;37948;53.260;6.394;2022-11-20T08:29:12;1.30;99.90
51922;DHT22;37948;53.260;6.394;2022-11-20T08:31:38;1.40;99.90
51922;DHT22;37948;53.260;6.394;2022-11-20T08:34:04;1.40;99.90
51922;DHT22;37948;53.260;6.394;2022-11-20T08:36:33;1.40;99.90
51922;DHT22;37948;53.260;6.394;2022-11-20T08:38:59;1.40;99.90
51922;DHT22;37948;53.260;6.394;2022-11-20T08:41:24;1.40;99.90
51922;DHT22;37948;53.260;6.394;2022-11-20T08:46:23;1.50;99.90
51922;DHT22;37948;53.260;6.394;2022-11-20T08:48:49;1.50;99.90
51922;DHT22;37948;53.260;6.394;2022-11-20T08:51:15;1.50;99.90
51922;DHT22;37948;53.260;6.394;2022-11-20T08:53:41;1.50;99.90
51922;DHT22;37948;53.260;6.394;2022-11-20T08:56:07;1.50;99.90
51922;DHT22;37948;53.260;6.394;2022-11-20T08:58:34;1.50;99.90
51922;DHT22;37948;53.260;6.394;2022-11-20T09:01:00;1.50;99.90
51922;DHT22;37948;53.260;6.394;2022-11-20T09:03:26;1.50;99.90
51922;DHT22;37948;53.260;6.394;2022-11-20T09:06:00;1.50;99.90
51922;DHT22;37948;53.260;6.394;2022-11-20T09:08:26;1.50;99.90
51922;DHT22;37948;53.260;6.394;2022-11-20T09:10:56;1.60;99.90
51922;DHT22;37948;53.260;6.394;2022-11-20T09:13:23;1.60;99.90
51922;DHT22;37948;53.260;6.394;2022-11-20T09:16:08;1.60;99.90
51922;DHT22;37948;53.260;6.394;2022-11-20T09:18:34;1.60;99.90
51922;DHT22;37948;53.260;6.394;2022-11-20T09:21:06;1.60;99.90
51922;DHT22;37948;53.260;6.394;2022-11-20T09:23:34;1.60;99.90
51922;DHT22;37948;53.260;6.394;2022-11-20T09:26:08;1.70;99.90
51922;DHT22;37948;53.260;6.394;2022-11-20T09:28:34;1.70;99.90
51922;DHT22;37948;53.260;6.394;2022-11-20T09:31:00;1.70;99.90
51922;DHT22;37948;53.260;6.394;2022-11-20T09:33:26;1.80;99.90
51922;DHT22;37948;53.260;6.394;2022-11-20T09:35:52;1.80;99.90
51922;DHT22;37948;53.260;6.394;2022-11-20T09:38:18;1.80;99.90
51922;DHT22;37948;53.260;6.394;2022-11-20T09:41:06;1.80;99.90
51922;DHT22;37948;53.260;6.394;2022-11-20T09:46:28;1.90;99.90
51922;DHT22;37948;53.260;6.394;2022-11-20T09:49:07;2.00;99.90
51922;DHT22;37948;53.260;6.394;2022-11-20T09:51:59;2.00;99.90
51922;DHT22;37948;53.260;6.394;2022-11-20T09:54:34;2.10;99.90
51922;DHT22;37948;53.260;6.394;2022-11-20T09:57:10;2.10;99.90
51922;DHT22;37948;53.260;6.394;2022-11-20T09:59:43;2.10;99.90
51922;DHT22;37948;53.260;6.394;2022-11-20T10:05:15;2.10;99.90
51922;DHT22;37948;53.260;6.394;2022-11-20T10:07:50;2.10;99.90
51922;DHT22;37948;53.260;6.394;2022-11-20T10:10:40;2.10;99.90
51922;DHT22;37948;53.260;6.394;2022-11-20T10:13:35;2.10;99.90
51922;DHT22;37948;53.260;6.394;2022-11-20T10:16:16;2.20;99.90
51922;DHT22;37948;53.260;6.394;2022-11-20T10:22:06;2.20;99.90
51922;DHT22;37948;53.260;6.394;2022-11-20T10:24:52;2.30;99.90
51922;DHT22;37948;53.260;6.394;2022-11-20T10:30:16;2.40;99.90
51922;DHT22;37948;53.260;6.394;2022-11-20T10:32:49;2.40;99.90
51922;DHT22;37948;53.260;6.394;2022-11-20T10:37:51;2.60;99.90
51922;DHT22;37948;53.260;6.394;2022-11-20T10:42:56;2.60;99.90
51922;DHT22;37948;53.260;6.394;2022-11-20T10:47:56;2.80;99.90
51922;DHT22;37948;53.260;6.394;2022-11-20T10:50:24;2.90;99.90
51922;DHT22;37948;53.260;6.394;2022-11-20T10:53:08;2.90;99.90
51922;DHT22;37948;53.260;6.394;2022-11-20T10:56:04;2.90;99.90
51922;DHT22;37948;53.260;6.394;2022-11-20T10:58:45;2.90;99.90
51922;DHT22;37948;53.260;6.394;2022-11-20T11:01:21;2.90;99.90
51922;DHT22;37948;53.260;6.394;2022-11-20T11:03:49;3.00;99.90
51922;DHT22;37948;53.260;6.394;2022-11-20T11:06:39;3.00;99.90
51922;DHT22;37948;53.260;6.394;2022-11-20T11:09:31;2.90;99.90
51922;DHT22;37948;53.260;6.394;2022-11-20T11:11:57;2.90;99.90
51922;DHT22;37948;53.260;6.394;2022-11-20T11:14:23;2.80;99.90
51922;DHT22;37948;53.260;6.394;2022-11-20T11:16:58;2.80;99.90
51922;DHT22;37948;53.260;6.394;2022-11-20T11:19:24;2.70;99.90
51922;DHT22;37948;53.260;6.394;2022-11-20T11:21:56;2.70;99.90
51922;DHT22;37948;53.260;6.394;2022-11-20T11:24:29;2.70;99.90
51922;DHT22;37948;53.260;6.394;2022-11-20T11:27:02;2.70;99.90
51922;DHT22;37948;53.260;6.394;2022-11-20T11:29:32;2.70;99.90
51922;DHT22;37948;53.260;6.394;2022-11-20T11:32:08;2.80;99.90
51922;DHT22;37948;53.260;6.394;2022-11-20T11:34:34;2.70;99.90
51922;DHT22;37948;53.260;6.394;2022-11-20T11:37:01;2.70;99.90
51922;DHT22;37948;53.260;6.394;2022-11-20T11:39:30;2.70;99.90
51922;DHT22;37948;53.260;6.394;2022-11-20T11:41:57;2.70;99.90
51922;DHT22;37948;53.260;6.394;2022-11-20T11:44:32;2.70;99.90
51922;DHT22;37948;53.260;6.394;2022-11-20T11:55:44;2.70;99.90
51922;DHT22;37948;53.260;6.394;2022-11-20T11:58:34;2.70;99.90
51922;DHT22;37948;53.260;6.394;2022-11-20T12:01:21;2.70;99.90
51922;DHT22;37948;53.260;6.394;2022-11-20T12:04:16;2.70;99.90
51922;DHT22;37948;53.260;6.394;2022-11-20T12:06:45;2.80;99.90
51922;DHT22;37948;53.260;6.394;2022-11-20T12:09:12;2.80;99.90
51922;DHT22;37948;53.260;6.394;2022-11-20T12:11:47;2.80;99.90
51922;DHT22;37948;53.260;6.394;2022-11-20T12:14:33;2.90;99.90
51922;DHT22;37948;53.260;6.394;2022-11-20T12:17:00;2.90;99.90
51922;DHT22;37948;53.260;6.394;2022-11-20T12:19:33;2.90;99.90
51922;DHT22;37948;53.260;6.394;2022-11-20T12:22:05;2.90;99.90
51922;DHT22;37948;53.260;6.394;2022-11-20T12:32:45;3.10;99.90
51922;DHT22;37948;53.260;6.394;2022-11-20T12:38:34;3.10;99.90
51922;DHT22;37948;53.260;6.394;2022-11-20T12:41:24;3.10;99.90
51922;DHT22;37948;53.260;6.394;2022-11-20T12:44:51;3.10;99.90
51922;DHT22;37948;53.260;6.394;2022-11-20T12:53:30;3.10;99.90
51922;DHT22;37948;53.260;6.394;2022-11-20T12:56:12;3.10;99.90
51922;DHT22;37948;53.260;6.394;2022-11-20T12:59:37;3.10;99.90
51922;DHT22;37948;53.260;6.394;2022-11-20T13:08:08;3.10;99.90
51922;DHT22;37948;53.260;6.394;2022-11-20T13:10:49;3.20;99.90
51922;DHT22;37948;53.260;6.394;2022-11-20T13:13:33;3.20;99.90
51922;DHT22;37948;53.260;6.394;2022-11-20T13:16:06;3.20;99.90
51922;DHT22;37948;53.260;6.394;2022-11-20T13:18:38;3.20;99.90
51922;DHT22;37948;53.260;6.394;2022-11-20T13:21:15;3.20;99.90
51922;DHT22;37948;53.260;6.394;2022-11-20T13:23:41;3.20;99.90
51922;DHT22;37948;53.260;6.394;2022-11-20T13:26:22;3.20;99.90
51922;DHT22;37948;53.260;6.394;2022-11-20T13:29:09;3.20;99.90
51922;DHT22;37948;53.260;6.394;2022-11-20T13:31:41;3.20;99.90
51922;DHT22;37948;53.260;6.394;2022-11-20T13:34:50;3.30;99.90
51922;DHT22;37948;53.260;6.394;2022-11-20T13:37:03;3.30;99.90
51922;DHT22;37948;53.260;6.394;2022-11-20T13:39:33;3.30;99.90
51922;DHT22;37948;53.260;6.394;2022-11-20T13:42:21;3.30;99.90
51922;DHT22;37948;53.260;6.394;2022-11-20T13:45:08;3.30;99.90
51922;DHT22;37948;53.260;6.394;2022-11-20T13:47:35;3.40;99.90
51922;DHT22;37948;53.260;6.394;2022-11-20T13:50:03;3.30;99.90
51922;DHT22;37948;53.260;6.394;2022-11-20T13:55:26;3.40;99.90
51922;DHT22;37948;53.260;6.394;2022-11-20T13:58:28;3.40;99.90
51922;DHT22;37948;53.260;6.394;2022-11-20T14:01:20;3.40;99.90
51922;DHT22;37948;53.260;6.394;2022-11-20T14:03:47;3.40;99.90
51922;DHT22;37948;53.260;6.394;2022-11-20T14:06:30;3.40;99.90
51922;DHT22;37948;53.260;6.394;2022-11-20T14:08:57;3.40;99.90
51922;DHT22;37948;53.260;6.394;2022-11-20T14:11:25;3.40;99.90
51922;DHT22;37948;53.260;6.394;2022-11-20T14:13:58;3.40;99.90
51922;DHT22;37948;53.260;6.394;2022-11-20T14:16:25;3.40;99.90
51922;DHT22;37948;53.260;6.394;2022-11-20T14:18:51;3.40;99.90
51922;DHT22;37948;53.260;6.394;2022-11-20T14:21:29;3.40;99.90
51922;DHT22;37948;53.260;6.394;2022-11-20T14:24:11;3.40;99.90
51922;DHT22;37948;53.260;6.394;2022-11-20T14:26:41;3.30;99.90
51922;DHT22;37948;53.260;6.394;2022-11-20T14:29:22;3.30;99.90
51922;DHT22;37948;53.260;6.394;2022-11-20T14:31:52;3.30;99.90
51922;DHT22;37948;53.260;6.394;2022-11-20T14:34:32;3.30;99.90
51922;DHT22;37948;53.260;6.394;2022-11-20T14:37:01;3.20;99.90
51922;DHT22;37948;53.260;6.394;2022-11-20T14:39:34;3.20;99.90
51922;DHT22;37948;53.260;6.394;2022-11-20T14:42:00;3.20;99.90
51922;DHT22;37948;53.260;6.394;2022-11-20T14:44:34;3.20;99.90
51922;DHT22;37948;53.260;6.394;2022-11-20T14:47:02;3.20;99.90
51922;DHT22;37948;53.260;6.394;2022-11-20T14:49:30;3.20;99.90
51922;DHT22;37948;53.260;6.394;2022-11-20T14:52:11;3.20;99.90
51922;DHT22;37948;53.260;6.394;2022-11-20T14:55:04;3.20;99.90
51922;DHT22;37948;53.260;6.394;2022-11-20T14:57:33;3.20;99.90
51922;DHT22;37948;53.260;6.394;2022-11-20T15:02:48;3.10;99.90
51922;DHT22;37948;53.260;6.394;2022-11-20T15:05:15;3.10;99.90
51922;DHT22;37948;53.260;6.394;2022-11-20T15:07:44;3.10;99.90
51922;DHT22;37948;53.260;6.394;2022-11-20T15:10:28;3.00;99.90
51922;DHT22;37948;53.260;6.394;2022-11-20T15:12:56;3.00;99.90
51922;DHT22;37948;53.260;6.394;2022-11-20T15:15:31;3.00;99.90
51922;DHT22;37948;53.260;6.394;2022-11-20T15:17:57;3.00;99.90
51922;DHT22;37948;53.260;6.394;2022-11-20T15:20:30;2.90;99.90
51922;DHT22;37948;53.260;6.394;2022-11-20T15:22:56;2.90;99.90
51922;DHT22;37948;53.260;6.394;2022-11-20T15:25:22;2.90;99.90
51922;DHT22;37948;53.260;6.394;2022-11-20T15:27:53;2.90;99.90
51922;DHT22;37948;53.260;6.394;2022-11-20T15:30:20;2.90;99.90
51922;DHT22;37948;53.260;6.394;2022-11-20T15:32:46;2.90;99.90
51922;DHT22;37948;53.260;6.394;2022-11-20T15:35:13;2.80;99.90
51922;DHT22;37948;53.260;6.394;2022-11-20T15:37:39;2.80;99.90
51922;DHT22;37948;53.260;6.394;2022-11-20T15:40:06;2.80;99.90
51922;DHT22;37948;53.260;6.394;2022-11-20T15:42:32;2.80;99.90
51922;DHT22;37948;53.260;6.394;2022-11-20T15:44:58;2.80;99.90
51922;DHT22;37948;53.260;6.394;2022-11-20T15:47:29;2.80;99.90
51922;DHT22;37948;53.260;6.394;2022-11-20T15:49:56;2.80;99.90
51922;DHT22;37948;53.260;6.394;2022-11-20T15:52:21;2.70;99.90
51922;DHT22;37948;53.260;6.394;2022-11-20T15:54:47;2.70;99.90
51922;DHT22;37948;53.260;6.394;2022-11-20T15:57:12;2.70;99.90
51922;DHT22;37948;53.260;6.394;2022-11-20T15:59:38;2.70;99.90
51922;DHT22;37948;53.260;6.394;2022-11-20T16:02:14;2.70;99.90
51922;DHT22;37948;53.260;6.394;2022-11-20T16:04:40;2.80;99.90
51922;DHT22;37948;53.260;6.394;2022-11-20T16:07:06;2.80;99.90
51922;DHT22;37948;53.260;6.394;2022-11-20T16:09:31;2.80;99.90
51922;DHT22;37948;53.260;6.394;2022-11-20T16:11:58;2.80;99.90
51922;DHT22;37948;53.260;6.394;2022-11-20T16:14:27;2.80;99.90
51922;DHT22;37948;53.260;6.394;2022-11-20T16:17:12;2.80;99.90
51922;DHT22;37948;53.260;6.394;2022-11-20T16:19:37;2.80;99.90
51922;DHT22;37948;53.260;6.394;2022-11-20T16:22:03;2.80;99.90
51922;DHT22;37948;53.260;6.394;2022-11-20T16:24:29;2.80;99.90
51922;DHT22;37948;53.260;6.394;2022-11-20T16:26:55;2.80;99.90
51922;DHT22;37948;53.260;6.394;2022-11-20T16:29:20;2.80;99.90
51922;DHT22;37948;53.260;6.394;2022-11-20T16:31:46;2.80;99.90
51922;DHT22;37948;53.260;6.394;2022-11-20T16:34:12;2.80;99.90
51922;DHT22;37948;53.260;6.394;2022-11-20T16:36:42;2.80;99.90
51922;DHT22;37948;53.260;6.394;2022-11-20T16:39:08;2.80;99.90
51922;DHT22;37948;53.260;6.394;2022-11-20T16:41:35;2.80;99.90
51922;DHT22;37948;53.260;6.394;2022-11-20T16:44:02;2.70;99.90
51922;DHT22;37948;53.260;6.394;2022-11-20T16:46:31;2.70;99.90
51922;DHT22;37948;53.260;6.394;2022-11-20T16:49:05;2.70;99.90
51922;DHT22;37948;53.260;6.394;2022-11-20T16:51:34;2.80;99.90
51922;DHT22;37948;53.260;6.394;2022-11-20T16:54:04;2.80;99.90
51922;DHT22;37948;53.260;6.394;2022-11-20T16:56:30;2.80;99.90
51922;DHT22;37948;53.260;6.394;2022-11-20T16:58:58;2.80;99.90
51922;DHT22;37948;53.260;6.394;2022-11-20T17:01:24;2.80;99.90
51922;DHT22;37948;53.260;6.394;2022-11-20T17:04:01;2.80;99.90
51922;DHT22;37948;53.260;6.394;2022-11-20T17:06:29;2.80;99.90